sensor_id;sensor_type;location;lat;lon;timestamp;temperature;humidity
37052;DHT22;22964;52.272;13.356;2023-11-19T00:00:29;8.90;72.30
37052;DHT22;22964;52.272;13.356;2023-11-19T00:02:55;9.00;72.40
37052;DHT22;22964;52.272;13.356;2023-11-19T00:05:21;8.90;72.40
37052;DHT22;22964;52.272;13.356;2023-11-19T00:07:47;9.00;72.50
37052;DHT22;22964;52.272;13.356;2023-11-19T00:10:17;9.00;72.40
37052;DHT22;22964;52.272;13.356;2023-11-19T00:12:48;9.00;72.40
37052;DHT22;22964;52.272;13.356;2023-11-19T00:15:15;9.00;72.40
37052;DHT22;22964;52.272;13.356;2023-11-19T00:17:41;9.00;72.40
37052;DHT22;22964;52.272;13.356;2023-11-19T00:20:19;9.00;72.40
37052;DHT22;22964;52.272;13.356;2023-11-19T00:22:47;9.00;72.40
37052;DHT22;22964;52.272;13.356;2023-11-19T00:25:20;9.00;72.40
37052;DHT22;22964;52.272;13.356;2023-11-19T00:27:47;9.00;72.40
37052;DHT22;22964;52.272;13.356;2023-11-19T00:30:13;9.00;72.30
37052;DHT22;22964;52.272;13.356;2023-11-19T00:32:40;9.00;72.20
37052;DHT22;22964;52.272;13.356;2023-11-19T00:35:06;9.00;72.10
37052;DHT22;22964;52.272;13.356;2023-11-19T00:37:41;9.10;72.10
37052;DHT22;22964;52.272;13.356;2023-11-19T00:40:11;9.00;72.10
37052;DHT22;22964;52.272;13.356;2023-11-19T00:42:37;9.10;72.00
37052;DHT22;22964;52.272;13.356;2023-11-19T00:45:04;9.10;71.90
37052;DHT22;22964;52.272;13.356;2023-11-19T00:47:34;9.10;71.80
37052;DHT22;22964;52.272;13.356;2023-11-19T00:50:01;9.10;71.80
37052;DHT22;22964;52.272;13.356;2023-11-19T00:52:26;9.10;71.70
37052;DHT22;22964;52.272;13.356;2023-11-19T00:54:52;9.10;71.70
37052;DHT22;22964;52.272;13.356;2023-11-19T00:57:19;9.10;71.80
37052;DHT22;22964;52.272;13.356;2023-11-19T00:59:45;9.10;71.70
37052;DHT22;22964;52.272;13.356;2023-11-19T01:02:11;9.10;71.70
37052;DHT22;22964;52.272;13.356;2023-11-19T01:04:37;9.10;71.70
37052;DHT22;22964;52.272;13.356;2023-11-19T01:07:04;9.10;71.70
37052;DHT22;22964;52.272;13.356;2023-11-19T01:09:33;9.10;71.70
37052;DHT22;22964;52.272;13.356;2023-11-19T01:12:00;9.10;71.70
37052;DHT22;22964;52.272;13.356;2023-11-19T01:14:27;9.10;71.60
37052;DHT22;22964;52.272;13.356;2023-11-19T01:16:53;9.10;71.50
37052;DHT22;22964;52.272;13.356;2023-11-19T01:19:23;9.10;71.70
37052;DHT22;22964;52.272;13.356;2023-11-19T01:21:50;9.20;71.70
37052;DHT22;22964;52.272;13.356;2023-11-19T01:24:16;9.20;71.60
37052;DHT22;22964;52.272;13.356;2023-11-19T01:26:43;9.20;71.60
37052;DHT22;22964;52.272;13.356;2023-11-19T01:29:13;9.20;71.60
37052;DHT22;22964;52.272;13.356;2023-11-19T01:31:45;9.20;71.50
37052;DHT22;22964;52.272;13.356;2023-11-19T01:34:12;9.20;71.60
37052;DHT22;22964;52.272;13.356;2023-11-19T01:36:38;9.20;71.60
37052;DHT22;22964;52.272;13.356;2023-11-19T01:39:04;9.20;71.60
37052;DHT22;22964;52.272;13.356;2023-11-19T01:41:37;9.20;71.60
37052;DHT22;22964;52.272;13.356;2023-11-19T01:44:06;9.20;71.60
37052;DHT22;22964;52.272;13.356;2023-11-19T01:46:32;9.20;71.60
37052;DHT22;22964;52.272;13.356;2023-11-19T01:48:59;9.20;71.60
37052;DHT22;22964;52.272;13.356;2023-11-19T01:51:26;9.20;71.60
37052;DHT22;22964;52.272;13.356;2023-11-19T01:53:53;9.30;71.70
37052;DHT22;22964;52.272;13.356;2023-11-19T01:56:20;9.30;71.60
37052;DHT22;22964;52.272;13.356;2023-11-19T01:58:48;9.30;71.70
37052;DHT22;22964;52.272;13.356;2023-11-19T02:01:15;9.30;71.70
37052;DHT22;22964;52.272;13.356;2023-11-19T02:03:41;9.30;71.60
37052;DHT22;22964;52.272;13.356;2023-11-19T02:06:07;9.30;71.50
37052;DHT22;22964;52.272;13.356;2023-11-19T02:08:35;9.30;71.60
37052;DHT22;22964;52.272;13.356;2023-11-19T02:11:01;9.40;71.60
37052;DHT22;22964;52.272;13.356;2023-11-19T02:13:27;9.30;71.40
37052;DHT22;22964;52.272;13.356;2023-11-19T02:15:54;9.30;71.50
37052;DHT22;22964;52.272;13.356;2023-11-19T02:18:24;9.40;71.60
37052;DHT22;22964;52.272;13.356;2023-11-19T02:20:54;9.40;71.70
37052;DHT22;22964;52.272;13.356;2023-11-19T02:23:21;9.40;71.50
37052;DHT22;22964;52.272;13.356;2023-11-19T02:26:00;9.40;71.50
37052;DHT22;22964;52.272;13.356;2023-11-19T02:28:27;9.40;71.40
37052;DHT22;22964;52.272;13.356;2023-11-19T02:30:53;9.40;71.50
37052;DHT22;22964;52.272;13.356;2023-11-19T02:33:19;9.40;71.40
37052;DHT22;22964;52.272;13.356;2023-11-19T02:35:45;9.40;71.50
37052;DHT22;22964;52.272;13.356;2023-11-19T02:38:11;9.40;71.60
37052;DHT22;22964;52.272;13.356;2023-11-19T02:40:39;9.40;71.60
37052;DHT22;22964;52.272;13.356;2023-11-19T02:43:05;9.40;71.60
37052;DHT22;22964;52.272;13.356;2023-11-19T02:45:31;9.40;71.70
37052;DHT22;22964;52.272;13.356;2023-11-19T02:47:57;9.40;71.60
37052;DHT22;22964;52.272;13.356;2023-11-19T02:50:23;9.40;71.70
37052;DHT22;22964;52.272;13.356;2023-11-19T02:52:53;9.40;71.80
37052;DHT22;22964;52.272;13.356;2023-11-19T02:55:19;9.40;72.00
37052;DHT22;22964;52.272;13.356;2023-11-19T02:57:45;9.50;72.10
37052;DHT22;22964;52.272;13.356;2023-11-19T03:02:44;9.50;72.60
37052;DHT22;22964;52.272;13.356;2023-11-19T03:05:19;9.50;72.20
37052;DHT22;22964;52.272;13.356;2023-11-19T03:07:45;9.50;72.20
37052;DHT22;22964;52.272;13.356;2023-11-19T03:10:11;9.50;72.20
37052;DHT22;22964;52.272;13.356;2023-11-19T03:12:41;9.50;72.40
37052;DHT22;22964;52.272;13.356;2023-11-19T03:15:09;9.50;72.30
37052;DHT22;22964;52.272;13.356;2023-11-19T03:17:38;9.50;72.30
37052;DHT22;22964;52.272;13.356;2023-11-19T03:20:06;9.50;72.40
37052;DHT22;22964;52.272;13.356;2023-11-19T03:22:32;9.60;72.60
37052;DHT22;22964;52.272;13.356;2023-11-19T03:25:01;9.60;72.70
37052;DHT22;22964;52.272;13.356;2023-11-19T03:27:27;9.60;73.80
37052;DHT22;22964;52.272;13.356;2023-11-19T03:29:52;9.60;72.90
37052;DHT22;22964;52.272;13.356;2023-11-19T03:32:18;9.60;73.10
37052;DHT22;22964;52.272;13.356;2023-11-19T03:34:45;9.60;73.20
37052;DHT22;22964;52.272;13.356;2023-11-19T03:37:11;9.60;73.40
37052;DHT22;22964;52.272;13.356;2023-11-19T03:39:37;9.60;73.60
37052;DHT22;22964;52.272;13.356;2023-11-19T03:42:03;9.60;73.60
37052;DHT22;22964;52.272;13.356;2023-11-19T03:44:29;9.50;73.70
37052;DHT22;22964;52.272;13.356;2023-11-19T03:46:55;9.60;74.10
37052;DHT22;22964;52.272;13.356;2023-11-19T03:49:21;9.60;74.10
37052;DHT22;22964;52.272;13.356;2023-11-19T03:51:49;9.50;74.30
37052;DHT22;22964;52.272;13.356;2023-11-19T03:54:15;9.50;74.30
37052;DHT22;22964;52.272;13.356;2023-11-19T03:56:41;9.50;74.50
37052;DHT22;22964;52.272;13.356;2023-11-19T03:59:07;9.50;74.60
37052;DHT22;22964;52.272;13.356;2023-11-19T04:01:35;9.50;74.90
37052;DHT22;22964;52.272;13.356;2023-11-19T04:04:02;9.50;75.00
37052;DHT22;22964;52.272;13.356;2023-11-19T04:06:28;9.50;75.00
37052;DHT22;22964;52.272;13.356;2023-11-19T04:08:54;9.50;75.30
37052;DHT22;22964;52.272;13.356;2023-11-19T04:11:21;9.50;75.40
37052;DHT22;22964;52.272;13.356;2023-11-19T04:13:47;9.50;75.50
37052;DHT22;22964;52.272;13.356;2023-11-19T04:16:12;9.50;75.70
37052;DHT22;22964;52.272;13.356;2023-11-19T04:18:38;9.50;75.80
37052;DHT22;22964;52.272;13.356;2023-11-19T04:21:06;9.50;76.10
37052;DHT22;22964;52.272;13.356;2023-11-19T04:23:32;9.50;76.10
37052;DHT22;22964;52.272;13.356;2023-11-19T04:25:58;9.50;75.90
37052;DHT22;22964;52.272;13.356;2023-11-19T04:28:26;9.50;76.10
37052;DHT22;22964;52.272;13.356;2023-11-19T04:30:52;9.50;76.10
37052;DHT22;22964;52.272;13.356;2023-11-19T04:33:18;9.50;76.40
37052;DHT22;22964;52.272;13.356;2023-11-19T04:35:44;9.50;76.30
37052;DHT22;22964;52.272;13.356;2023-11-19T04:38:10;9.50;76.40
37052;DHT22;22964;52.272;13.356;2023-11-19T04:40:36;9.50;76.50
37052;DHT22;22964;52.272;13.356;2023-11-19T04:43:01;9.50;76.80
37052;DHT22;22964;52.272;13.356;2023-11-19T04:45:27;9.50;76.80
37052;DHT22;22964;52.272;13.356;2023-11-19T04:47:53;9.40;76.70
37052;DHT22;22964;52.272;13.356;2023-11-19T04:50:19;9.40;76.90
37052;DHT22;22964;52.272;13.356;2023-11-19T04:52:44;9.40;76.90
37052;DHT22;22964;52.272;13.356;2023-11-19T04:55:12;9.40;77.00
37052;DHT22;22964;52.272;13.356;2023-11-19T04:57:40;9.40;76.90
37052;DHT22;22964;52.272;13.356;2023-11-19T05:00:06;9.40;77.20
37052;DHT22;22964;52.272;13.356;2023-11-19T05:02:34;9.40;77.20
37052;DHT22;22964;52.272;13.356;2023-11-19T05:05:01;9.40;77.30
37052;DHT22;22964;52.272;13.356;2023-11-19T05:07:26;9.50;77.40
37052;DHT22;22964;52.272;13.356;2023-11-19T05:09:52;9.50;77.30
37052;DHT22;22964;52.272;13.356;2023-11-19T05:12:18;9.50;77.40
37052;DHT22;22964;52.272;13.356;2023-11-19T05:14:45;9.50;77.40
37052;DHT22;22964;52.272;13.356;2023-11-19T05:17:15;9.50;77.40
37052;DHT22;22964;52.272;13.356;2023-11-19T05:19:41;9.50;77.40
37052;DHT22;22964;52.272;13.356;2023-11-19T05:22:07;9.50;77.40
37052;DHT22;22964;52.272;13.356;2023-11-19T05:24:33;9.60;77.60
37052;DHT22;22964;52.272;13.356;2023-11-19T05:26:59;9.60;77.60
37052;DHT22;22964;52.272;13.356;2023-11-19T05:29:25;9.60;77.50
37052;DHT22;22964;52.272;13.356;2023-11-19T05:31:51;9.60;77.40
37052;DHT22;22964;52.272;13.356;2023-11-19T05:34:16;9.60;77.60
37052;DHT22;22964;52.272;13.356;2023-11-19T05:36:42;9.60;77.40
37052;DHT22;22964;52.272;13.356;2023-11-19T05:39:09;9.50;77.60
37052;DHT22;22964;52.272;13.356;2023-11-19T05:41:36;9.60;77.80
37052;DHT22;22964;52.272;13.356;2023-11-19T05:44:02;9.50;77.70
37052;DHT22;22964;52.272;13.356;2023-11-19T05:46:28;9.50;77.80
37052;DHT22;22964;52.272;13.356;2023-11-19T05:48:54;9.50;77.90
37052;DHT22;22964;52.272;13.356;2023-11-19T05:51:20;9.50;77.70
37052;DHT22;22964;52.272;13.356;2023-11-19T05:53:46;9.50;77.90
37052;DHT22;22964;52.272;13.356;2023-11-19T05:56:11;9.50;78.70
37052;DHT22;22964;52.272;13.356;2023-11-19T05:58:37;9.50;78.00
37052;DHT22;22964;52.272;13.356;2023-11-19T06:01:05;9.50;78.00
37052;DHT22;22964;52.272;13.356;2023-11-19T06:03:32;9.50;78.10
37052;DHT22;22964;52.272;13.356;2023-11-19T06:05:58;9.50;78.00
37052;DHT22;22964;52.272;13.356;2023-11-19T06:08:24;9.50;78.10
37052;DHT22;22964;52.272;13.356;2023-11-19T06:10:52;9.50;78.00
37052;DHT22;22964;52.272;13.356;2023-11-19T06:13:18;9.50;78.00
37052;DHT22;22964;52.272;13.356;2023-11-19T06:15:46;9.50;78.10
37052;DHT22;22964;52.272;13.356;2023-11-19T06:18:12;9.50;78.10
37052;DHT22;22964;52.272;13.356;2023-11-19T06:20:40;9.50;78.20
37052;DHT22;22964;52.272;13.356;2023-11-19T06:23:06;9.50;78.40
37052;DHT22;22964;52.272;13.356;2023-11-19T06:25:32;9.50;78.30
37052;DHT22;22964;52.272;13.356;2023-11-19T06:27:58;9.50;78.30
37052;DHT22;22964;52.272;13.356;2023-11-19T06:30:24;9.60;78.30
37052;DHT22;22964;52.272;13.356;2023-11-19T06:32:51;9.50;78.60
37052;DHT22;22964;52.272;13.356;2023-11-19T06:35:17;9.50;78.80
37052;DHT22;22964;52.272;13.356;2023-11-19T06:37:42;9.50;78.70
37052;DHT22;22964;52.272;13.356;2023-11-19T06:40:09;9.50;78.60
37052;DHT22;22964;52.272;13.356;2023-11-19T06:42:35;9.60;78.80
37052;DHT22;22964;52.272;13.356;2023-11-19T06:45:02;9.60;79.10
37052;DHT22;22964;52.272;13.356;2023-11-19T06:47:28;9.60;79.00
37052;DHT22;22964;52.272;13.356;2023-11-19T06:49:54;9.60;79.20
37052;DHT22;22964;52.272;13.356;2023-11-19T06:52:21;9.60;79.20
37052;DHT22;22964;52.272;13.356;2023-11-19T06:54:47;9.60;79.10
37052;DHT22;22964;52.272;13.356;2023-11-19T06:57:13;9.60;79.20
37052;DHT22;22964;52.272;13.356;2023-11-19T06:59:39;9.60;79.50
37052;DHT22;22964;52.272;13.356;2023-11-19T07:02:05;9.70;79.40
37052;DHT22;22964;52.272;13.356;2023-11-19T07:04:32;9.70;79.50
37052;DHT22;22964;52.272;13.356;2023-11-19T07:06:59;9.70;79.50
37052;DHT22;22964;52.272;13.356;2023-11-19T07:09:26;9.70;79.60
37052;DHT22;22964;52.272;13.356;2023-11-19T07:11:51;9.70;79.60
37052;DHT22;22964;52.272;13.356;2023-11-19T07:14:18;9.80;79.80
37052;DHT22;22964;52.272;13.356;2023-11-19T07:16:44;9.80;79.70
37052;DHT22;22964;52.272;13.356;2023-11-19T07:19:11;9.80;79.90
37052;DHT22;22964;52.272;13.356;2023-11-19T07:21:37;9.80;79.80
37052;DHT22;22964;52.272;13.356;2023-11-19T07:24:12;9.90;80.00
37052;DHT22;22964;52.272;13.356;2023-11-19T07:26:43;9.90;80.40
37052;DHT22;22964;52.272;13.356;2023-11-19T07:29:09;9.90;80.50
37052;DHT22;22964;52.272;13.356;2023-11-19T07:31:36;9.90;80.50
37052;DHT22;22964;52.272;13.356;2023-11-19T07:34:02;9.90;80.60
37052;DHT22;22964;52.272;13.356;2023-11-19T07:36:29;10.00;80.50
37052;DHT22;22964;52.272;13.356;2023-11-19T07:38:55;10.00;80.70
37052;DHT22;22964;52.272;13.356;2023-11-19T07:41:23;10.00;80.80
37052;DHT22;22964;52.272;13.356;2023-11-19T07:43:51;10.10;80.80
37052;DHT22;22964;52.272;13.356;2023-11-19T07:46:19;10.10;80.80
37052;DHT22;22964;52.272;13.356;2023-11-19T07:48:47;10.10;80.90
37052;DHT22;22964;52.272;13.356;2023-11-19T07:51:13;10.10;80.90
37052;DHT22;22964;52.272;13.356;2023-11-19T07:53:40;10.20;80.90
37052;DHT22;22964;52.272;13.356;2023-11-19T07:56:08;10.20;81.10
37052;DHT22;22964;52.272;13.356;2023-11-19T07:58:34;10.20;81.40
37052;DHT22;22964;52.272;13.356;2023-11-19T08:01:00;10.30;81.30
37052;DHT22;22964;52.272;13.356;2023-11-19T08:03:27;10.30;81.40
37052;DHT22;22964;52.272;13.356;2023-11-19T08:05:58;10.30;81.70
37052;DHT22;22964;52.272;13.356;2023-11-19T08:08:24;10.40;81.80
37052;DHT22;22964;52.272;13.356;2023-11-19T08:10:49;10.40;81.60
37052;DHT22;22964;52.272;13.356;2023-11-19T08:13:20;10.50;81.90
37052;DHT22;22964;52.272;13.356;2023-11-19T08:15:46;10.50;81.80
37052;DHT22;22964;52.272;13.356;2023-11-19T08:18:12;10.60;81.90
37052;DHT22;22964;52.272;13.356;2023-11-19T08:20:39;10.60;82.30
37052;DHT22;22964;52.272;13.356;2023-11-19T08:23:05;10.60;82.20
37052;DHT22;22964;52.272;13.356;2023-11-19T08:25:31;10.70;82.20
37052;DHT22;22964;52.272;13.356;2023-11-19T08:27:56;10.70;82.10
37052;DHT22;22964;52.272;13.356;2023-11-19T08:30:22;10.80;82.20
37052;DHT22;22964;52.272;13.356;2023-11-19T08:32:48;10.90;82.30
37052;DHT22;22964;52.272;13.356;2023-11-19T08:35:14;10.90;82.40
37052;DHT22;22964;52.272;13.356;2023-11-19T08:37:41;11.00;82.50
37052;DHT22;22964;52.272;13.356;2023-11-19T08:40:08;11.10;82.60
37052;DHT22;22964;52.272;13.356;2023-11-19T08:42:34;11.10;82.70
37052;DHT22;22964;52.272;13.356;2023-11-19T08:45:01;11.20;83.00
37052;DHT22;22964;52.272;13.356;2023-11-19T08:47:26;11.20;82.90
37052;DHT22;22964;52.272;13.356;2023-11-19T08:49:52;11.30;83.00
37052;DHT22;22964;52.272;13.356;2023-11-19T08:52:19;11.40;83.00
37052;DHT22;22964;52.272;13.356;2023-11-19T08:54:44;11.50;83.00
37052;DHT22;22964;52.272;13.356;2023-11-19T08:57:10;11.50;83.30
37052;DHT22;22964;52.272;13.356;2023-11-19T08:59:36;11.60;83.10
37052;DHT22;22964;52.272;13.356;2023-11-19T09:02:05;11.60;82.90
37052;DHT22;22964;52.272;13.356;2023-11-19T09:04:32;11.70;82.90
37052;DHT22;22964;52.272;13.356;2023-11-19T09:06:58;11.80;82.90
37052;DHT22;22964;52.272;13.356;2023-11-19T09:09:24;11.80;82.70
37052;DHT22;22964;52.272;13.356;2023-11-19T09:11:49;11.90;82.80
37052;DHT22;22964;52.272;13.356;2023-11-19T09:14:15;11.90;82.70
37052;DHT22;22964;52.272;13.356;2023-11-19T09:16:41;12.00;82.70
37052;DHT22;22964;52.272;13.356;2023-11-19T09:19:07;12.00;82.50
37052;DHT22;22964;52.272;13.356;2023-11-19T09:21:32;12.10;82.60
37052;DHT22;22964;52.272;13.356;2023-11-19T09:24:02;12.10;82.80
37052;DHT22;22964;52.272;13.356;2023-11-19T09:26:28;12.20;82.90
37052;DHT22;22964;52.272;13.356;2023-11-19T09:28:54;12.20;82.90
37052;DHT22;22964;52.272;13.356;2023-11-19T09:31:20;12.30;83.20
37052;DHT22;22964;52.272;13.356;2023-11-19T09:33:45;12.30;83.50
37052;DHT22;22964;52.272;13.356;2023-11-19T09:36:14;12.40;83.70
37052;DHT22;22964;52.272;13.356;2023-11-19T09:38:45;12.50;83.70
37052;DHT22;22964;52.272;13.356;2023-11-19T09:41:11;12.60;83.50
37052;DHT22;22964;52.272;13.356;2023-11-19T09:43:39;12.60;83.40
37052;DHT22;22964;52.272;13.356;2023-11-19T09:46:07;12.70;83.70
37052;DHT22;22964;52.272;13.356;2023-11-19T09:48:36;12.80;84.00
37052;DHT22;22964;52.272;13.356;2023-11-19T09:51:09;12.80;83.80
37052;DHT22;22964;52.272;13.356;2023-11-19T09:53:36;12.90;83.60
37052;DHT22;22964;52.272;13.356;2023-11-19T09:56:03;13.00;83.40
37052;DHT22;22964;52.272;13.356;2023-11-19T09:58:30;13.00;83.60
37052;DHT22;22964;52.272;13.356;2023-11-19T10:00:57;13.10;83.50
37052;DHT22;22964;52.272;13.356;2023-11-19T10:03:34;13.10;84.00
37052;DHT22;22964;52.272;13.356;2023-11-19T10:06:08;13.20;84.00
37052;DHT22;22964;52.272;13.356;2023-11-19T10:08:37;13.30;84.10
37052;DHT22;22964;52.272;13.356;2023-11-19T10:11:03;13.30;84.20
37052;DHT22;22964;52.272;13.356;2023-11-19T10:13:29;13.40;83.80
37052;DHT22;22964;52.272;13.356;2023-11-19T10:15:58;13.50;83.50
37052;DHT22;22964;52.272;13.356;2023-11-19T10:18:25;13.50;83.20
37052;DHT22;22964;52.272;13.356;2023-11-19T10:20:51;13.60;83.20
37052;DHT22;22964;52.272;13.356;2023-11-19T10:23:17;13.60;82.80
37052;DHT22;22964;52.272;13.356;2023-11-19T10:25:43;13.70;82.80
37052;DHT22;22964;52.272;13.356;2023-11-19T10:28:09;13.70;82.80
37052;DHT22;22964;52.272;13.356;2023-11-19T10:30:35;13.70;82.70
37052;DHT22;22964;52.272;13.356;2023-11-19T10:33:14;13.80;82.60
37052;DHT22;22964;52.272;13.356;2023-11-19T10:35:56;13.80;82.60
37052;DHT22;22964;52.272;13.356;2023-11-19T10:38:23;13.80;82.80
37052;DHT22;22964;52.272;13.356;2023-11-19T10:40:49;13.90;82.10
37052;DHT22;22964;52.272;13.356;2023-11-19T10:43:19;14.00;82.30
37052;DHT22;22964;52.272;13.356;2023-11-19T10:45:45;14.00;82.30
37052;DHT22;22964;52.272;13.356;2023-11-19T10:48:11;14.00;82.40
37052;DHT22;22964;52.272;13.356;2023-11-19T10:50:43;14.10;82.40
37052;DHT22;22964;52.272;13.356;2023-11-19T10:53:10;14.10;82.30
37052;DHT22;22964;52.272;13.356;2023-11-19T10:55:38;14.20;82.70
37052;DHT22;22964;52.272;13.356;2023-11-19T10:58:06;14.30;83.10
37052;DHT22;22964;52.272;13.356;2023-11-19T11:00:56;14.40;83.60
37052;DHT22;22964;52.272;13.356;2023-11-19T11:03:26;14.50;83.60
37052;DHT22;22964;52.272;13.356;2023-11-19T11:05:56;14.60;83.10
37052;DHT22;22964;52.272;13.356;2023-11-19T11:08:23;14.70;82.60
37052;DHT22;22964;52.272;13.356;2023-11-19T11:10:53;14.80;82.20
37052;DHT22;22964;52.272;13.356;2023-11-19T11:13:23;14.80;81.80
37052;DHT22;22964;52.272;13.356;2023-11-19T11:15:56;14.90;81.50
37052;DHT22;22964;52.272;13.356;2023-11-19T11:18:23;15.00;81.30
37052;DHT22;22964;52.272;13.356;2023-11-19T11:20:52;15.00;81.00
37052;DHT22;22964;52.272;13.356;2023-11-19T11:26:08;15.10;80.80
37052;DHT22;22964;52.272;13.356;2023-11-19T11:28:48;15.10;80.80
37052;DHT22;22964;52.272;13.356;2023-11-19T11:39:30;15.30;80.90
37052;DHT22;22964;52.272;13.356;2023-11-19T11:45:06;15.40;81.10
37052;DHT22;22964;52.272;13.356;2023-11-19T11:50:17;15.60;80.80
37052;DHT22;22964;52.272;13.356;2023-11-19T11:55:28;15.80;80.20
37052;DHT22;22964;52.272;13.356;2023-11-19T11:57:59;15.90;80.00
37052;DHT22;22964;52.272;13.356;2023-11-19T12:00:41;16.00;79.60
37052;DHT22;22964;52.272;13.356;2023-11-19T12:03:11;16.10;79.10
37052;DHT22;22964;52.272;13.356;2023-11-19T12:05:44;16.20;79.00
37052;DHT22;22964;52.272;13.356;2023-11-19T12:08:12;16.20;78.80
37052;DHT22;22964;52.272;13.356;2023-11-19T12:10:50;16.30;78.70
37052;DHT22;22964;52.272;13.356;2023-11-19T12:13:17;16.30;78.50
37052;DHT22;22964;52.272;13.356;2023-11-19T12:18:31;16.40;77.60
37052;DHT22;22964;52.272;13.356;2023-11-19T12:21:00;16.50;77.50
37052;DHT22;22964;52.272;13.356;2023-11-19T12:23:29;16.50;77.20
37052;DHT22;22964;52.272;13.356;2023-11-19T12:25:55;16.50;76.90
37052;DHT22;22964;52.272;13.356;2023-11-19T12:28:21;16.60;76.40
37052;DHT22;22964;52.272;13.356;2023-11-19T12:30:50;16.60;76.10
37052;DHT22;22964;52.272;13.356;2023-11-19T12:33:16;16.60;75.80
37052;DHT22;22964;52.272;13.356;2023-11-19T12:35:44;16.60;75.60
37052;DHT22;22964;52.272;13.356;2023-11-19T12:38:23;16.60;76.10
37052;DHT22;22964;52.272;13.356;2023-11-19T12:41:09;16.70;74.60
37052;DHT22;22964;52.272;13.356;2023-11-19T12:43:39;16.70;73.80
37052;DHT22;22964;52.272;13.356;2023-11-19T12:46:20;16.70;74.60
37052;DHT22;22964;52.272;13.356;2023-11-19T12:48:50;16.70;74.00
37052;DHT22;22964;52.272;13.356;2023-11-19T12:51:17;16.70;74.20
37052;DHT22;22964;52.272;13.356;2023-11-19T12:53:50;16.70;74.20
37052;DHT22;22964;52.272;13.356;2023-11-19T12:56:18;16.60;73.60
37052;DHT22;22964;52.272;13.356;2023-11-19T12:58:43;16.60;74.10
37052;DHT22;22964;52.272;13.356;2023-11-19T13:01:09;16.60;73.80
37052;DHT22;22964;52.272;13.356;2023-11-19T13:03:36;16.60;73.70
37052;DHT22;22964;52.272;13.356;2023-11-19T13:06:10;16.50;73.60
37052;DHT22;22964;52.272;13.356;2023-11-19T13:08:47;16.50;73.60
37052;DHT22;22964;52.272;13.356;2023-11-19T13:11:31;16.50;73.30
37052;DHT22;22964;52.272;13.356;2023-11-19T13:16:25;16.50;73.70
37052;DHT22;22964;52.272;13.356;2023-11-19T13:18:52;16.50;73.80
37052;DHT22;22964;52.272;13.356;2023-11-19T13:21:18;16.40;74.00
37052;DHT22;22964;52.272;13.356;2023-11-19T13:23:44;16.40;74.30
37052;DHT22;22964;52.272;13.356;2023-11-19T13:26:11;16.40;74.50
37052;DHT22;22964;52.272;13.356;2023-11-19T13:28:37;16.40;74.20
37052;DHT22;22964;52.272;13.356;2023-11-19T13:31:03;16.40;75.00
37052;DHT22;22964;52.272;13.356;2023-11-19T13:33:29;16.40;74.10
37052;DHT22;22964;52.272;13.356;2023-11-19T13:35:56;16.40;74.00
37052;DHT22;22964;52.272;13.356;2023-11-19T13:38:22;16.40;73.60
37052;DHT22;22964;52.272;13.356;2023-11-19T13:40:51;16.40;73.50
37052;DHT22;22964;52.272;13.356;2023-11-19T13:43:17;16.40;73.30
37052;DHT22;22964;52.272;13.356;2023-11-19T13:45:43;16.40;73.10
37052;DHT22;22964;52.272;13.356;2023-11-19T13:48:09;16.40;73.00
37052;DHT22;22964;52.272;13.356;2023-11-19T13:50:35;16.40;72.80
37052;DHT22;22964;52.272;13.356;2023-11-19T13:53:01;16.40;72.70
37052;DHT22;22964;52.272;13.356;2023-11-19T13:55:27;16.40;72.80
37052;DHT22;22964;52.272;13.356;2023-11-19T13:57:53;16.30;72.20
37052;DHT22;22964;52.272;13.356;2023-11-19T14:00:18;16.30;72.10
37052;DHT22;22964;52.272;13.356;2023-11-19T14:02:46;16.30;72.00
37052;DHT22;22964;52.272;13.356;2023-11-19T14:05:16;16.30;71.70
37052;DHT22;22964;52.272;13.356;2023-11-19T14:07:44;16.30;72.00
37052;DHT22;22964;52.272;13.356;2023-11-19T14:10:14;16.30;72.10
37052;DHT22;22964;52.272;13.356;2023-11-19T14:12:41;16.20;72.20
37052;DHT22;22964;52.272;13.356;2023-11-19T14:15:08;16.20;72.30
37052;DHT22;22964;52.272;13.356;2023-11-19T14:17:40;16.10;72.10
37052;DHT22;22964;52.272;13.356;2023-11-19T14:20:07;16.20;72.40
37052;DHT22;22964;52.272;13.356;2023-11-19T14:22:41;16.10;72.50
37052;DHT22;22964;52.272;13.356;2023-11-19T14:25:11;16.10;72.90
37052;DHT22;22964;52.272;13.356;2023-11-19T14:27:38;16.10;72.50
37052;DHT22;22964;52.272;13.356;2023-11-19T14:30:09;16.10;72.70
37052;DHT22;22964;52.272;13.356;2023-11-19T14:32:36;16.10;72.70
37052;DHT22;22964;52.272;13.356;2023-11-19T14:35:06;16.00;72.80
37052;DHT22;22964;52.272;13.356;2023-11-19T14:37:32;16.00;72.70
37052;DHT22;22964;52.272;13.356;2023-11-19T14:39:58;16.00;72.90
37052;DHT22;22964;52.272;13.356;2023-11-19T14:42:24;16.00;72.80
37052;DHT22;22964;52.272;13.356;2023-11-19T14:44:53;16.00;72.90
37052;DHT22;22964;52.272;13.356;2023-11-19T14:47:22;16.00;72.90
37052;DHT22;22964;52.272;13.356;2023-11-19T14:49:49;15.90;72.50
37052;DHT22;22964;52.272;13.356;2023-11-19T14:52:15;15.90;72.70
37052;DHT22;22964;52.272;13.356;2023-11-19T14:54:41;15.90;72.70
37052;DHT22;22964;52.272;13.356;2023-11-19T14:57:07;15.90;72.70
37052;DHT22;22964;52.272;13.356;2023-11-19T14:59:37;15.90;72.70
37052;DHT22;22964;52.272;13.356;2023-11-19T15:02:04;15.90;73.40
37052;DHT22;22964;52.272;13.356;2023-11-19T15:04:31;15.90;72.50
37052;DHT22;22964;52.272;13.356;2023-11-19T15:06:59;15.90;72.50
37052;DHT22;22964;52.272;13.356;2023-11-19T15:09:25;15.90;72.30
37052;DHT22;22964;52.272;13.356;2023-11-19T15:11:54;15.80;72.40
37052;DHT22;22964;52.272;13.356;2023-11-19T15:14:20;15.80;72.10
37052;DHT22;22964;52.272;13.356;2023-11-19T15:16:47;15.80;72.30
37052;DHT22;22964;52.272;13.356;2023-11-19T15:19:13;15.80;72.30
37052;DHT22;22964;52.272;13.356;2023-11-19T15:21:43;15.80;72.50
37052;DHT22;22964;52.272;13.356;2023-11-19T15:24:10;15.80;72.40
37052;DHT22;22964;52.272;13.356;2023-11-19T15:26:37;15.80;73.30
37052;DHT22;22964;52.272;13.356;2023-11-19T15:29:04;15.80;73.10
37052;DHT22;22964;52.272;13.356;2023-11-19T15:31:30;15.80;72.40
37052;DHT22;22964;52.272;13.356;2023-11-19T15:33:56;15.80;72.40
37052;DHT22;22964;52.272;13.356;2023-11-19T15:36:22;15.80;72.50
37052;DHT22;22964;52.272;13.356;2023-11-19T15:38:50;15.80;72.50
37052;DHT22;22964;52.272;13.356;2023-11-19T15:41:16;15.70;72.40
37052;DHT22;22964;52.272;13.356;2023-11-19T15:43:42;15.80;72.50
37052;DHT22;22964;52.272;13.356;2023-11-19T15:46:08;15.70;72.40
37052;DHT22;22964;52.272;13.356;2023-11-19T15:48:35;15.70;72.50
37052;DHT22;22964;52.272;13.356;2023-11-19T15:51:01;15.70;72.40